createdAt,value
2017-05-23T00:02:02.104Z,15.31
2017-05-23T00:04:32.037Z,15.21
2017-05-23T00:07:01.876Z,15.20
2017-05-23T00:09:31.749Z,15.20
2017-05-23T00:12:01.600Z,15.23
2017-05-23T00:14:31.446Z,15.16
2017-05-23T00:17:01.330Z,15.14
2017-05-23T00:19:31.167Z,15.12
2017-05-23T00:22:01.088Z,15.04
2017-05-23T00:24:30.924Z,14.93
2017-05-23T00:27:00.775Z,14.85
2017-05-23T00:29:30.642Z,14.88
2017-05-23T00:32:00.488Z,14.90
2017-05-23T00:34:30.396Z,14.77
2017-05-23T00:37:00.242Z,14.82
2017-05-23T00:39:30.088Z,14.70
2017-05-23T00:41:59.950Z,14.71
2017-05-23T00:44:29.788Z,14.79
2017-05-23T00:46:59.659Z,14.71
2017-05-23T00:49:29.508Z,14.67
2017-05-23T00:51:59.356Z,14.70
2017-05-23T00:54:29.373Z,14.68
2017-05-23T00:57:01.189Z,14.65
2017-05-23T00:59:31.080Z,14.58
2017-05-23T01:02:00.923Z,14.59
2017-05-23T01:04:30.797Z,14.56
2017-05-23T01:07:00.670Z,14.45
2017-05-23T01:09:30.522Z,14.52
2017-05-23T01:12:00.411Z,14.53
2017-05-23T01:14:30.258Z,14.51
2017-05-23T01:17:00.095Z,14.42
2017-05-23T01:19:30.023Z,14.43
2017-05-23T01:21:59.868Z,14.26
2017-05-23T01:24:29.735Z,14.31
2017-05-23T01:26:59.579Z,14.25
2017-05-23T01:29:29.434Z,14.17
2017-05-23T01:31:59.318Z,14.19
2017-05-23T01:34:29.176Z,14.19
2017-05-23T01:36:58.438Z,14.14
2017-05-23T01:39:28.290Z,14.12
2017-05-23T01:41:57.777Z,14.14
2017-05-23T01:44:27.653Z,14.14
2017-05-23T01:46:57.132Z,14.07
2017-05-23T01:49:27.021Z,14.05
2017-05-23T01:51:56.875Z,14.13
2017-05-23T01:54:26.784Z,14.22
2017-05-23T01:56:57.561Z,14.19
2017-05-23T01:59:27.415Z,14.09
2017-05-23T02:01:57.296Z,14.10
2017-05-23T02:04:27.144Z,14.03
2017-05-23T02:06:57.049Z,14.10
2017-05-23T02:09:26.893Z,14.14
2017-05-23T02:11:56.772Z,14.15
2017-05-23T02:14:26.652Z,14.12
2017-05-23T02:16:56.525Z,14.00
2017-05-23T02:19:26.428Z,13.93
2017-05-23T02:21:56.332Z,13.95
2017-05-23T02:24:26.184Z,13.90
2017-05-23T02:26:56.121Z,13.88
2017-05-23T02:29:25.964Z,13.92
2017-05-23T02:31:55.903Z,13.87
2017-05-23T02:34:25.755Z,13.91
2017-05-23T02:36:55.606Z,13.86
2017-05-23T02:39:25.540Z,13.85
2017-05-23T02:41:55.380Z,13.75
2017-05-23T02:44:25.333Z,13.81
2017-05-23T02:46:55.184Z,13.74
2017-05-23T02:49:25.028Z,13.69
2017-05-23T02:51:54.904Z,13.65
2017-05-23T02:54:25.774Z,13.68
2017-05-23T02:56:55.759Z,13.65
2017-05-23T02:59:25.642Z,13.65
2017-05-23T03:01:55.495Z,13.61
2017-05-23T03:04:25.372Z,13.66
2017-05-23T03:06:55.244Z,13.71
2017-05-23T03:09:25.133Z,13.74
2017-05-23T03:11:54.981Z,13.71
2017-05-23T03:14:24.858Z,13.57
2017-05-23T03:16:54.736Z,13.64
2017-05-23T03:19:24.599Z,13.67
2017-05-23T03:21:54.502Z,13.65
2017-05-23T03:24:24.401Z,13.65
2017-05-23T03:26:54.253Z,13.59
2017-05-23T03:29:24.133Z,13.58
2017-05-23T03:31:53.983Z,13.60
2017-05-23T03:34:23.853Z,13.55
2017-05-23T03:36:53.710Z,13.64
2017-05-23T03:39:23.619Z,13.60
2017-05-23T03:41:53.474Z,13.58
2017-05-23T03:44:23.370Z,13.60
2017-05-23T03:46:53.248Z,13.58
2017-05-23T03:49:23.097Z,13.58
2017-05-23T03:51:53.005Z,13.75
2017-05-23T03:54:22.857Z,13.71
2017-05-23T03:56:53.673Z,13.75
2017-05-23T03:59:23.521Z,13.82
2017-05-23T04:01:53.437Z,13.77
2017-05-23T04:04:23.291Z,13.81
2017-05-23T04:06:53.152Z,13.76
2017-05-23T04:09:23.039Z,13.77
2017-05-23T04:11:52.900Z,13.87
2017-05-23T04:14:22.817Z,13.88
2017-05-23T04:16:52.656Z,13.95
2017-05-23T04:19:22.510Z,14.12
2017-05-23T04:21:52.383Z,14.08
2017-05-23T04:24:22.238Z,14.12
2017-05-23T04:26:52.142Z,14.18
2017-05-23T04:29:21.986Z,14.15
2017-05-23T04:31:51.832Z,14.22
2017-05-23T04:34:21.704Z,14.26
2017-05-23T04:36:51.576Z,14.33
2017-05-23T04:39:21.477Z,14.43
2017-05-23T04:41:51.364Z,14.37
2017-05-23T04:44:21.220Z,14.25
2017-05-23T04:46:51.095Z,14.28
2017-05-23T04:49:20.937Z,14.45
2017-05-23T04:51:50.847Z,14.49
2017-05-23T04:54:20.698Z,14.65
2017-05-23T04:56:50.548Z,14.72
2017-05-23T04:59:20.428Z,14.72
2017-05-23T05:01:50.280Z,14.76
2017-05-23T05:04:20.157Z,14.80
2017-05-23T05:06:50.007Z,14.74
2017-05-23T05:09:19.861Z,14.79
2017-05-23T05:11:49.732Z,14.90
2017-05-23T05:14:19.592Z,15.03
2017-05-23T05:16:49.503Z,15.09
2017-05-23T05:19:19.349Z,15.19
2017-05-23T05:21:49.248Z,15.24
2017-05-23T05:24:19.097Z,15.36
2017-05-23T05:26:48.972Z,15.32
2017-05-23T05:29:18.844Z,15.45
2017-05-23T05:31:48.696Z,15.45
2017-05-23T05:34:18.573Z,15.50
2017-05-23T05:36:48.418Z,15.56
2017-05-23T05:39:18.266Z,15.58
2017-05-23T05:41:48.148Z,15.65
2017-05-23T05:44:17.999Z,15.65
2017-05-23T05:46:47.912Z,15.70
2017-05-23T05:49:17.780Z,15.74
2017-05-23T05:51:47.657Z,15.74
2017-05-23T05:54:17.545Z,15.75
2017-05-23T05:56:47.428Z,15.73
2017-05-23T05:59:17.341Z,15.74
2017-05-23T06:01:47.205Z,15.91
2017-05-23T06:04:17.105Z,15.98
2017-05-23T06:06:46.959Z,15.92
2017-05-23T06:09:16.829Z,16.00
2017-05-23T06:11:46.719Z,16.01
2017-05-23T06:14:22.102Z,16.09
2017-05-23T06:16:52.004Z,16.16
2017-05-23T06:19:21.857Z,16.15
2017-05-23T06:21:51.760Z,16.14
2017-05-23T06:24:21.639Z,16.14
2017-05-23T06:26:51.489Z,16.19
2017-05-23T06:29:22.629Z,16.27
2017-05-23T06:31:52.484Z,16.45
2017-05-23T06:34:22.393Z,16.48
2017-05-23T06:36:52.237Z,16.51
2017-05-23T06:39:22.101Z,16.67
2017-05-23T06:41:51.977Z,16.68
2017-05-23T06:44:21.825Z,16.76
2017-05-23T06:46:51.740Z,16.82
2017-05-23T06:49:21.585Z,17.03
2017-05-23T06:51:52.403Z,17.11
2017-05-23T06:54:22.261Z,17.18
2017-05-23T06:56:52.162Z,17.25
2017-05-23T06:59:22.018Z,17.33
2017-05-23T07:01:51.869Z,17.49
2017-05-23T07:04:21.744Z,17.61
2017-05-23T07:06:51.605Z,17.74
2017-05-23T07:09:21.523Z,17.81
2017-05-23T07:11:51.368Z,17.87
2017-05-23T07:14:21.272Z,18.01
2017-05-23T07:16:51.131Z,18.16
2017-05-23T07:19:21.001Z,18.32
2017-05-23T07:21:50.878Z,18.46
2017-05-23T07:24:20.729Z,18.73
2017-05-23T07:26:50.605Z,18.84
2017-05-23T07:29:20.445Z,18.83
2017-05-23T07:31:50.340Z,18.84
2017-05-23T07:34:20.194Z,19.06
2017-05-23T07:36:50.037Z,19.11
2017-05-23T07:39:19.928Z,19.22
2017-05-23T07:41:49.791Z,19.34
2017-05-23T07:44:19.711Z,19.39
2017-05-23T07:46:49.605Z,19.41
2017-05-23T07:49:19.522Z,19.45
2017-05-23T07:51:49.364Z,19.53
2017-05-23T07:54:19.203Z,19.57
2017-05-23T07:56:49.088Z,19.79
2017-05-23T07:59:18.943Z,19.96
2017-05-23T08:01:48.846Z,20.06
2017-05-23T08:04:18.703Z,20.09
2017-05-23T08:06:48.542Z,20.16
2017-05-23T08:09:18.414Z,20.30
2017-05-23T08:11:48.263Z,20.31
2017-05-23T08:14:18.157Z,20.42
2017-05-23T08:16:48.031Z,20.48
2017-05-23T08:19:17.876Z,20.53
2017-05-23T08:21:47.755Z,20.53
2017-05-23T08:24:17.611Z,20.55
2017-05-23T08:26:47.536Z,20.75
2017-05-23T08:29:17.397Z,20.85
2017-05-23T08:31:47.245Z,20.95
2017-05-23T08:34:17.119Z,21.13
2017-05-23T08:36:46.996Z,21.21
2017-05-23T08:39:16.883Z,21.23
2017-05-23T08:41:46.738Z,21.21
2017-05-23T08:44:16.576Z,21.30
2017-05-23T08:46:46.447Z,21.33
2017-05-23T08:49:16.287Z,21.43
2017-05-23T08:51:46.182Z,21.49
2017-05-23T08:54:16.023Z,21.61
2017-05-23T08:56:45.860Z,21.69
2017-05-23T08:59:15.722Z,21.71
2017-05-23T09:01:45.562Z,21.81
2017-05-23T09:04:15.459Z,21.81
2017-05-23T09:06:45.304Z,21.88
2017-05-23T09:09:15.144Z,21.95
2017-05-23T09:11:45.025Z,21.95
2017-05-23T09:14:14.857Z,21.95
2017-05-23T09:16:44.758Z,21.97
2017-05-23T09:19:14.620Z,22.07
2017-05-23T09:21:44.503Z,22.11
2017-05-23T09:24:14.149Z,22.17
2017-05-23T09:26:49.444Z,22.18
2017-05-23T09:29:19.289Z,22.32
2017-05-23T09:31:49.135Z,22.43
2017-05-23T09:34:19.001Z,22.54
2017-05-23T09:36:48.876Z,22.47
2017-05-23T09:39:18.776Z,22.49
2017-05-23T09:41:48.612Z,22.57
2017-05-23T09:44:18.461Z,22.67
2017-05-23T09:46:48.320Z,22.80
2017-05-23T09:49:18.167Z,22.84
2017-05-23T09:51:48.047Z,22.91
2017-05-23T09:54:17.883Z,23.00
2017-05-23T09:56:47.767Z,23.04
2017-05-23T09:59:17.649Z,23.03
2017-05-23T10:01:47.492Z,23.05
2017-05-23T10:04:17.395Z,23.18
2017-05-23T10:06:47.243Z,23.28
2017-05-23T10:09:17.097Z,23.31
2017-05-23T10:11:46.993Z,23.27
2017-05-23T10:14:16.844Z,23.29
2017-05-23T10:16:46.743Z,23.24
2017-05-23T10:19:16.626Z,23.20
2017-05-23T10:21:46.484Z,23.32
2017-05-23T10:24:16.348Z,23.50
2017-05-23T10:26:46.190Z,23.60
2017-05-23T10:29:16.105Z,23.65
2017-05-23T10:31:45.946Z,23.69
2017-05-23T10:34:15.814Z,23.75
2017-05-23T10:36:45.677Z,23.81
2017-05-23T10:39:15.516Z,23.79
2017-05-23T10:41:45.396Z,23.82
2017-05-23T10:44:15.245Z,23.82
2017-05-23T10:46:45.119Z,23.79
2017-05-23T10:49:14.992Z,23.79
2017-05-23T10:51:44.839Z,23.80
2017-05-23T10:54:14.726Z,23.85
2017-05-23T10:56:44.574Z,24.01
2017-05-23T10:59:14.415Z,24.15
2017-05-23T11:01:44.289Z,23.97
2017-05-23T11:04:14.131Z,23.93
2017-05-23T11:06:44.033Z,23.91
2017-05-23T11:09:13.882Z,23.95
2017-05-23T11:11:43.780Z,24.05
2017-05-23T11:14:13.617Z,24.12
2017-05-23T11:16:43.485Z,24.23
2017-05-23T11:19:13.361Z,24.35
2017-05-23T11:21:43.199Z,24.44
2017-05-23T11:24:13.068Z,24.45
2017-05-23T11:26:42.944Z,24.36
2017-05-23T11:29:12.781Z,24.33
2017-05-23T11:31:42.649Z,24.48
2017-05-23T11:34:12.306Z,24.53
2017-05-23T11:36:42.182Z,24.67
2017-05-23T11:39:12.021Z,24.71
2017-05-23T11:41:41.864Z,24.57
2017-05-23T11:44:11.749Z,24.43
2017-05-23T11:46:41.591Z,24.31
2017-05-23T11:49:11.484Z,24.14
2017-05-23T11:51:41.321Z,24.08
2017-05-23T11:54:11.208Z,23.99
2017-05-23T11:56:41.038Z,24.14
2017-05-23T11:59:10.889Z,24.20
2017-05-23T12:01:40.752Z,24.30
2017-05-23T12:04:10.625Z,24.39
2017-05-23T12:06:40.516Z,24.38
2017-05-23T12:09:10.353Z,24.33
2017-05-23T12:11:40.192Z,24.33
2017-05-23T12:14:10.076Z,24.33
2017-05-23T12:16:39.911Z,24.27
2017-05-23T12:19:09.804Z,24.35
2017-05-23T12:21:39.671Z,24.42
2017-05-23T12:24:09.556Z,24.34
2017-05-23T12:26:39.398Z,24.27
2017-05-23T12:29:09.259Z,24.32
2017-05-23T12:31:39.130Z,24.37
2017-05-23T12:34:08.971Z,24.39
2017-05-23T12:36:38.887Z,24.39
2017-05-23T12:39:08.726Z,24.43
2017-05-23T12:41:38.633Z,24.54
2017-05-23T12:44:08.472Z,24.68
2017-05-23T12:46:38.324Z,24.69
2017-05-23T12:49:08.214Z,24.73
2017-05-23T12:51:38.054Z,24.74
2017-05-23T12:54:07.971Z,24.68
2017-05-23T12:56:37.812Z,24.65
2017-05-23T12:59:07.700Z,24.62
2017-05-23T13:01:37.576Z,24.57
2017-05-23T13:04:07.421Z,24.59
2017-05-23T13:06:38.321Z,24.72
2017-05-23T13:09:08.157Z,24.76
2017-05-23T13:11:37.992Z,24.76
2017-05-23T13:14:07.866Z,24.79
2017-05-23T13:16:37.813Z,24.91
2017-05-23T13:19:07.699Z,24.94
2017-05-23T13:21:38.524Z,24.83
2017-05-23T13:24:08.404Z,24.66
2017-05-23T13:26:38.245Z,24.50
2017-05-23T13:29:08.103Z,24.38
2017-05-23T13:31:38.001Z,24.28
2017-05-23T13:34:07.840Z,24.20
2017-05-23T13:36:37.740Z,24.14
2017-05-23T13:39:07.609Z,24.12
2017-05-23T13:41:37.449Z,24.10
2017-05-23T13:44:07.316Z,24.05
2017-05-23T13:46:37.172Z,24.14
2017-05-23T13:49:07.065Z,24.17
2017-05-23T13:51:36.900Z,24.28
2017-05-23T13:54:06.761Z,24.32
2017-05-23T13:56:36.627Z,24.35
2017-05-23T13:59:06.480Z,24.42
2017-05-23T14:01:36.371Z,24.40
2017-05-23T14:04:06.214Z,24.37
2017-05-23T14:06:36.052Z,24.23
2017-05-23T14:09:05.610Z,24.14
2017-05-23T14:11:35.465Z,24.06
2017-05-23T14:14:05.363Z,23.98
2017-05-23T14:16:35.207Z,23.90
2017-05-23T14:19:06.128Z,23.90
2017-05-23T14:21:35.963Z,23.81
2017-05-23T14:24:05.800Z,23.76
2017-05-23T14:26:35.664Z,23.81
2017-05-23T14:29:05.497Z,23.73
2017-05-23T14:31:35.416Z,23.66
2017-05-23T14:34:05.247Z,23.62
2017-05-23T14:36:35.179Z,23.62
2017-05-23T14:39:04.348Z,23.65
2017-05-23T14:41:34.185Z,23.57
2017-05-23T14:44:04.060Z,23.56
2017-05-23T14:46:33.912Z,23.64
2017-05-23T14:51:10.054Z,23.33
2017-05-23T14:53:39.866Z,23.14
2017-05-23T14:56:09.742Z,23.10
2017-05-23T14:58:39.558Z,23.01
2017-05-23T15:01:09.388Z,22.91
2017-05-23T15:03:39.277Z,22.72
2017-05-23T15:06:09.119Z,22.46
2017-05-23T15:08:39.076Z,22.36
2017-05-23T15:11:08.904Z,22.33
2017-05-23T15:13:38.792Z,22.38
2017-05-23T15:16:08.646Z,22.56
2017-05-23T15:18:38.467Z,22.60
2017-05-23T15:21:08.348Z,22.63
2017-05-23T15:23:38.170Z,22.72
2017-05-23T15:26:08.041Z,22.75
2017-05-23T15:28:37.875Z,22.81
2017-05-23T15:31:07.706Z,22.80
2017-05-23T15:33:37.555Z,22.84
2017-05-23T15:36:07.370Z,22.85
2017-05-23T15:38:37.233Z,22.98
2017-05-23T15:41:07.066Z,22.92
2017-05-23T15:43:36.934Z,22.96
2017-05-23T15:46:06.792Z,22.94
2017-05-23T15:48:36.614Z,22.96
2017-05-23T15:51:06.483Z,22.98
2017-05-23T15:53:36.316Z,23.03
2017-05-23T15:56:06.220Z,23.09
2017-05-23T15:58:36.066Z,23.13
2017-05-23T16:01:05.895Z,23.27
2017-05-23T16:03:35.803Z,23.26
2017-05-23T16:06:05.632Z,23.29
2017-05-23T16:08:35.458Z,23.33
2017-05-23T16:11:05.299Z,23.37
2017-05-23T16:13:35.115Z,23.30
2017-05-23T16:16:04.991Z,23.26
2017-05-23T16:18:34.819Z,23.34
2017-05-23T16:21:04.699Z,23.26
2017-05-23T16:23:34.515Z,23.18
2017-05-23T16:26:04.331Z,23.22
2017-05-23T16:28:34.183Z,23.14
2017-05-23T16:31:04.012Z,23.12
2017-05-23T16:33:33.898Z,23.09
2017-05-23T16:36:03.718Z,23.09
2017-05-23T16:38:33.533Z,23.11
2017-05-23T16:41:03.407Z,23.19
2017-05-23T16:43:33.222Z,23.17
2017-05-23T16:46:03.091Z,23.21
2017-05-23T16:48:32.915Z,23.20
2017-05-23T16:51:02.734Z,23.22
2017-05-23T16:53:32.586Z,23.23
2017-05-23T16:56:02.402Z,23.24
2017-05-23T16:58:32.266Z,23.24
2017-05-23T17:01:02.082Z,23.22
2017-05-23T17:03:31.899Z,23.21
2017-05-23T17:06:01.752Z,23.18
2017-05-23T17:08:31.570Z,23.19
2017-05-23T17:11:01.465Z,23.17
2017-05-23T17:13:31.288Z,23.19
2017-05-23T17:16:01.106Z,23.18
2017-05-23T17:18:30.958Z,23.17
2017-05-23T17:21:00.790Z,23.18
2017-05-23T17:23:30.697Z,23.17
2017-05-23T17:26:00.523Z,23.18
2017-05-23T17:28:30.353Z,23.13
2017-05-23T17:31:00.207Z,23.12
2017-05-23T17:33:30.039Z,23.11
2017-05-23T17:35:59.922Z,23.13
2017-05-23T17:38:29.742Z,23.10
2017-05-23T17:40:59.567Z,23.07
2017-05-23T17:43:29.425Z,23.08
2017-05-23T17:45:59.274Z,23.06
2017-05-23T17:48:29.153Z,22.99
2017-05-23T17:50:58.994Z,22.96
2017-05-23T17:53:28.470Z,22.90
2017-05-23T17:55:58.404Z,22.86
2017-05-23T17:58:28.237Z,22.81
2017-05-23T18:00:58.126Z,22.77
2017-05-23T18:03:27.956Z,22.71
2017-05-23T18:05:57.879Z,22.68
2017-05-23T18:08:27.726Z,22.63
2017-05-23T18:10:57.610Z,22.59
2017-05-23T18:13:27.495Z,22.54
2017-05-23T18:15:57.363Z,22.49
2017-05-23T18:18:27.215Z,22.46
2017-05-23T18:20:57.125Z,22.41
2017-05-23T18:23:26.955Z,22.31
2017-05-23T18:25:56.875Z,22.32
2017-05-23T18:28:26.734Z,22.29
2017-05-23T18:30:56.560Z,22.24
2017-05-23T18:33:26.469Z,22.17
2017-05-23T18:35:57.004Z,22.17
2017-05-23T18:38:26.887Z,22.19
2017-05-23T18:40:56.719Z,22.20
2017-05-23T18:43:26.537Z,22.22
2017-05-23T18:45:56.393Z,22.21
2017-05-23T18:48:26.302Z,22.16
2017-05-23T18:50:56.175Z,22.18
2017-05-23T18:53:26.053Z,22.12
2017-05-23T18:55:55.872Z,22.07
2017-05-23T18:58:25.726Z,22.06
2017-05-23T19:00:55.584Z,22.05
2017-05-23T19:03:25.497Z,22.03
2017-05-23T19:05:55.331Z,21.97
2017-05-23T19:08:25.172Z,21.92
2017-05-23T19:10:55.043Z,21.88
2017-05-23T19:13:24.858Z,21.88
2017-05-23T19:15:54.778Z,21.81
2017-05-23T19:18:24.624Z,21.77
2017-05-23T19:20:54.497Z,21.78
2017-05-23T19:23:24.319Z,21.74
2017-05-23T19:25:54.144Z,21.68
2017-05-23T19:28:23.987Z,21.65
2017-05-23T19:30:53.811Z,21.60
2017-05-23T19:33:23.687Z,21.56
2017-05-23T19:35:53.529Z,21.55
2017-05-23T19:38:23.350Z,21.57
2017-05-23T19:40:53.194Z,21.56
2017-05-23T19:43:23.015Z,21.51
2017-05-23T19:45:52.923Z,21.49
2017-05-23T19:48:22.754Z,21.46
2017-05-23T19:50:52.577Z,21.35
2017-05-23T19:53:22.426Z,21.28
2017-05-23T19:55:52.250Z,21.23
2017-05-23T19:58:22.195Z,21.22
2017-05-23T20:00:52.025Z,21.11
2017-05-23T20:03:21.858Z,21.08
2017-05-23T20:05:51.708Z,21.01
2017-05-23T20:08:21.551Z,21.02
2017-05-23T20:10:51.431Z,20.86
2017-05-23T20:13:21.256Z,20.81
2017-05-23T20:15:51.086Z,20.75
2017-05-23T20:18:20.979Z,20.77
2017-05-23T20:20:50.809Z,20.71
2017-05-23T20:23:20.698Z,20.64
2017-05-23T20:25:50.523Z,20.71
2017-05-23T20:28:20.359Z,20.66
2017-05-23T20:30:50.275Z,20.69
2017-05-23T20:33:20.104Z,20.57
2017-05-23T20:35:49.955Z,20.51
2017-05-23T20:38:19.781Z,20.46
2017-05-23T20:40:49.661Z,20.48
2017-05-23T20:43:19.475Z,20.41
2017-05-23T20:45:49.443Z,20.44
2017-05-23T20:48:19.277Z,20.42
2017-05-23T20:50:49.140Z,20.47
2017-05-23T20:53:18.991Z,20.34
2017-05-23T20:55:48.814Z,20.29
2017-05-23T20:58:18.690Z,20.29
2017-05-23T21:00:48.513Z,20.34
2017-05-23T21:03:18.343Z,20.29
2017-05-23T21:05:48.229Z,20.37
2017-05-23T21:08:18.055Z,20.21
2017-05-23T21:10:48.398Z,20.14
2017-05-23T21:13:18.230Z,20.12
2017-05-23T21:15:48.122Z,20.15
2017-05-23T21:18:18.014Z,20.04
2017-05-23T21:20:47.864Z,20.04
2017-05-23T21:23:17.735Z,20.00
2017-05-23T21:25:47.553Z,19.94
2017-05-23T21:28:17.374Z,19.96
2017-05-23T21:30:47.222Z,19.90
2017-05-23T21:33:17.047Z,19.82
2017-05-23T21:35:46.905Z,19.92
2017-05-23T21:38:16.725Z,19.84
2017-05-23T21:40:46.619Z,19.78
2017-05-23T21:43:16.446Z,19.65
2017-05-23T21:45:46.269Z,19.65
2017-05-23T21:48:16.118Z,19.50
2017-05-23T21:50:45.942Z,19.37
2017-05-23T21:53:15.807Z,19.46
2017-05-23T21:55:45.634Z,19.43
2017-05-23T21:58:15.467Z,19.45
2017-05-23T22:00:45.325Z,19.22
2017-05-23T22:03:15.162Z,19.22
2017-05-23T22:05:45.042Z,19.20
2017-05-23T22:08:14.881Z,19.20
2017-05-23T22:10:44.747Z,19.04
2017-05-23T22:13:14.626Z,18.96
2017-05-23T22:15:44.443Z,18.96
2017-05-23T22:18:14.319Z,18.91
2017-05-23T22:20:44.240Z,18.82
2017-05-23T22:23:14.114Z,18.74
2017-05-23T22:25:43.957Z,18.83
2017-05-23T22:28:13.779Z,18.68
2017-05-23T22:30:43.646Z,18.76
2017-05-23T22:33:13.478Z,18.73
2017-05-23T22:35:43.339Z,18.50
2017-05-23T22:38:13.157Z,18.60
2017-05-23T22:40:43.011Z,18.47
2017-05-23T22:43:12.863Z,18.47
2017-05-23T22:45:42.758Z,18.50
2017-05-23T22:48:12.619Z,18.41
2017-05-23T22:50:42.434Z,18.23
2017-05-23T22:53:12.252Z,18.23
2017-05-23T22:55:42.102Z,18.10
2017-05-23T22:58:11.920Z,18.07
2017-05-23T23:00:41.812Z,18.15
2017-05-23T23:03:11.645Z,18.08
2017-05-23T23:05:41.474Z,18.10
2017-05-23T23:08:11.321Z,18.12
2017-05-23T23:10:41.142Z,17.98
2017-05-23T23:13:11.019Z,17.93
2017-05-23T23:15:40.843Z,17.78
2017-05-23T23:18:10.671Z,17.58
2017-05-23T23:20:40.521Z,17.62
2017-05-23T23:23:10.350Z,17.55
2017-05-23T23:25:40.229Z,17.52
2017-05-23T23:28:10.046Z,17.48
2017-05-23T23:30:39.895Z,17.36
2017-05-23T23:33:09.744Z,17.40
2017-05-23T23:35:39.570Z,17.44
2017-05-23T23:38:09.447Z,17.37
2017-05-23T23:40:39.274Z,17.38
2017-05-23T23:43:09.102Z,17.31
2017-05-23T23:45:38.951Z,17.26
2017-05-23T23:48:08.777Z,17.28
2017-05-23T23:50:38.650Z,17.32
2017-05-23T23:53:08.479Z,17.32
2017-05-23T23:55:38.405Z,17.37
2017-05-23T23:58:08.235Z,17.28
